Airport ID:1G3
Update Time (UTC):26/09/2021 04:06
Wind Speed (Knots):3
Wind Direction (Magnetic):220
Temperature (°C):9
Dew Point (°C):7
Humidity (%):90
Altimeter (inHg):30.04
Density Altitude (Feet):
Visibility:10+
Clouds (Hundreds of feet):***
Present Weather:
METAR:METAR 1G3 260405Z AUTO 21003KT 10SM 09/07 A3004 RMK A01

The data displayed is for advisory purposes only and is not to be used for flight planning or operations.